createdAt,value
2023-03-19T00:01:57.306Z,96155.59
2023-03-19T00:04:25.515Z,96158.41
2023-03-19T00:06:52.530Z,96162.50
2023-03-19T00:09:20.603Z,96165.94
2023-03-19T00:11:48.443Z,96167.00
2023-03-19T00:14:16.073Z,96176.13
2023-03-19T00:16:42.900Z,96170.31
2023-03-19T00:19:10.634Z,96179.63
2023-03-19T00:21:37.058Z,96175.91
2023-03-19T00:24:04.013Z,96182.75
2023-03-19T00:26:32.784Z,96185.25
2023-03-19T00:29:00.351Z,96191.22
2023-03-19T00:31:28.325Z,96205.06
2023-03-19T00:33:57.307Z,96202.34
2023-03-19T00:36:25.249Z,96199.34
2023-03-19T00:38:51.928Z,96208.59
2023-03-19T00:41:19.026Z,96205.25
2023-03-19T00:43:45.523Z,96206.91
2023-03-19T00:46:12.365Z,96210.19
2023-03-19T00:48:42.434Z,96202.66
2023-03-19T00:51:11.900Z,96208.34
2023-03-19T00:53:44.751Z,96209.03
2023-03-19T00:56:13.906Z,96212.59
2023-03-19T00:58:41.717Z,96210.88
2023-03-19T01:01:10.715Z,96216.78
2023-03-19T01:03:37.305Z,96210.69
2023-03-19T01:06:04.971Z,96217.09
2023-03-19T01:08:31.511Z,96220.25
2023-03-19T01:11:09.360Z,96227.47
2023-03-19T01:13:38.716Z,96229.22
2023-03-19T01:16:06.036Z,96227.59
2023-03-19T01:18:32.913Z,96228.44
2023-03-19T01:21:00.596Z,96230.47
2023-03-19T01:23:27.388Z,96234.41
2023-03-19T01:25:54.016Z,96222.72
2023-03-19T01:28:20.561Z,96226.22
2023-03-19T01:30:47.020Z,96229.47
2023-03-19T01:33:13.803Z,96235.56
2023-03-19T01:35:41.509Z,96232.06
2023-03-19T01:38:08.158Z,96232.72
2023-03-19T01:40:35.162Z,96232.22
2023-03-19T01:43:21.672Z,96233.75
2023-03-19T01:45:52.752Z,96236.25
2023-03-19T01:48:44.377Z,96242.19
2023-03-19T01:51:14.417Z,96238.47
2023-03-19T01:53:46.355Z,96249.97
2023-03-19T01:56:17.727Z,96251.25
2023-03-19T01:58:46.929Z,96244.03
2023-03-19T02:01:13.709Z,96245.56
2023-03-19T02:03:42.000Z,96252.38
2023-03-19T02:06:12.270Z,96261.53
2023-03-19T02:08:40.586Z,96258.63
2023-03-19T02:11:07.727Z,96256.28
2023-03-19T02:13:34.977Z,96258.38
2023-03-19T02:16:01.430Z,96263.97
2023-03-19T02:18:28.145Z,96263.94
2023-03-19T02:21:03.143Z,96266.75
2023-03-19T02:23:53.263Z,96252.88
2023-03-19T02:26:22.482Z,96255.50
2023-03-19T02:28:50.203Z,96259.22
2023-03-19T02:31:18.336Z,96258.56
2023-03-19T02:34:01.945Z,96266.72
2023-03-19T02:36:44.248Z,96266.91
2023-03-19T02:39:22.002Z,96266.41
2023-03-19T02:41:50.229Z,96269.16
2023-03-19T02:44:19.943Z,96259.38
2023-03-19T02:46:46.855Z,96254.66
2023-03-19T02:49:13.481Z,96265.16
2023-03-19T02:51:41.318Z,96256.94
2023-03-19T02:54:08.306Z,96265.25
2023-03-19T02:56:34.801Z,96267.88
2023-03-19T02:59:01.426Z,96268.13
2023-03-19T03:01:28.434Z,96271.28
2023-03-19T03:03:58.605Z,96274.19
2023-03-19T03:06:25.065Z,96265.56
2023-03-19T03:08:52.079Z,96267.88
2023-03-19T03:11:18.498Z,96273.00
2023-03-19T03:13:44.949Z,96267.88
2023-03-19T03:16:12.734Z,96268.97
2023-03-19T03:18:39.326Z,96274.00
2023-03-19T03:21:05.987Z,96273.00
2023-03-19T03:23:33.543Z,96272.38
2023-03-19T03:26:00.622Z,96279.53
2023-03-19T03:28:27.072Z,96294.38
2023-03-19T03:30:59.890Z,96285.16
2023-03-19T03:33:27.180Z,96293.59
2023-03-19T03:35:53.750Z,96289.31
2023-03-19T03:38:21.362Z,96287.34
2023-03-19T03:40:57.274Z,96283.91
2023-03-19T03:43:24.120Z,96299.44
2023-03-19T03:45:50.578Z,96293.19
2023-03-19T03:48:17.581Z,96291.63
2023-03-19T03:50:44.695Z,96298.63
2023-03-19T03:53:12.993Z,96293.38
2023-03-19T03:55:39.487Z,96297.94
2023-03-19T03:58:06.403Z,96293.38
2023-03-19T04:00:33.112Z,96296.44
2023-03-19T04:02:59.689Z,96291.63
2023-03-19T04:05:26.373Z,96294.25
2023-03-19T04:07:53.091Z,96296.13
2023-03-19T04:10:19.906Z,96293.66
2023-03-19T04:12:47.137Z,96289.28
2023-03-19T04:15:13.811Z,96297.78
2023-03-19T04:17:43.216Z,96303.41
2023-03-19T04:20:11.465Z,96302.03
2023-03-19T04:22:38.160Z,96309.63
2023-03-19T04:25:05.790Z,96308.75
2023-03-19T04:27:32.807Z,96308.78
2023-03-19T04:29:59.454Z,96315.22
2023-03-19T04:32:25.887Z,96306.53
2023-03-19T04:34:52.773Z,96302.59
2023-03-19T04:37:19.303Z,96306.34
2023-03-19T04:39:45.834Z,96309.97
2023-03-19T04:42:12.921Z,96308.13
2023-03-19T04:44:41.335Z,96315.00
2023-03-19T04:47:08.025Z,96304.13
2023-03-19T04:49:34.831Z,96306.53
2023-03-19T04:52:01.561Z,96315.25
2023-03-19T04:54:28.405Z,96318.41
2023-03-19T04:56:54.892Z,96316.59
2023-03-19T04:59:23.197Z,96311.69
2023-03-19T05:01:49.896Z,96318.81
2023-03-19T05:04:16.515Z,96323.44
2023-03-19T05:06:43.005Z,96321.50
2023-03-19T05:09:09.404Z,96328.31
2023-03-19T05:11:35.884Z,96318.31
2023-03-19T05:14:02.333Z,96325.78
2023-03-19T05:16:29.285Z,96321.88
2023-03-19T05:18:55.889Z,96325.09
2023-03-19T05:21:22.488Z,96324.38
2023-03-19T05:23:52.258Z,96325.19
2023-03-19T05:26:18.989Z,96329.44
2023-03-19T05:28:45.406Z,96332.78
2023-03-19T05:31:12.834Z,96338.28
2023-03-19T05:33:39.403Z,96340.94
2023-03-19T05:36:07.347Z,96330.59
2023-03-19T05:38:33.748Z,96330.34
2023-03-19T05:41:04.958Z,96338.41
2023-03-19T05:43:31.579Z,96335.91
2023-03-19T05:45:59.210Z,96344.34
2023-03-19T05:48:27.120Z,96344.47
2023-03-19T05:50:53.615Z,96351.16
2023-03-19T05:53:21.507Z,96355.63
2023-03-19T05:55:47.997Z,96359.63
2023-03-19T05:58:15.299Z,96360.19
2023-03-19T06:00:42.831Z,96367.88
2023-03-19T06:03:09.463Z,96358.00
2023-03-19T06:05:36.566Z,96368.03
2023-03-19T06:08:03.021Z,96369.38
2023-03-19T06:10:29.710Z,96369.84
2023-03-19T06:12:56.708Z,96377.81
2023-03-19T06:15:25.503Z,96370.06
2023-03-19T06:17:51.877Z,96385.94
2023-03-19T06:20:18.924Z,96387.94
2023-03-19T06:22:45.577Z,96388.25
2023-03-19T06:25:12.966Z,96390.09
2023-03-19T06:27:39.518Z,96389.66
2023-03-19T06:30:07.292Z,96387.56
2023-03-19T06:32:35.106Z,96389.75
2023-03-19T06:35:02.001Z,96389.97
2023-03-19T06:37:28.597Z,96384.34
2023-03-19T06:39:55.148Z,96387.31
2023-03-19T06:42:22.146Z,96381.81
2023-03-19T06:44:49.933Z,96387.00
2023-03-19T06:47:17.181Z,96382.28
2023-03-19T06:49:43.759Z,96378.69
2023-03-19T06:52:10.505Z,96378.69
2023-03-19T06:54:38.499Z,96378.25
2023-03-19T06:57:05.060Z,96374.72
2023-03-19T06:59:31.569Z,96370.53
2023-03-19T07:01:58.023Z,96375.75
2023-03-19T07:04:24.502Z,96372.16
2023-03-19T07:06:51.992Z,96384.69
2023-03-19T07:09:18.525Z,96383.75
2023-03-19T07:11:45.028Z,96389.28
2023-03-19T07:14:12.763Z,96388.34
2023-03-19T07:16:39.635Z,96398.94
2023-03-19T07:19:06.098Z,96402.19
2023-03-19T07:21:32.649Z,96400.06
2023-03-19T07:23:59.120Z,96405.72
2023-03-19T07:26:25.711Z,96402.19
2023-03-19T07:28:52.456Z,96402.34
2023-03-19T07:31:18.994Z,96400.09
2023-03-19T07:33:45.462Z,96395.88
2023-03-19T07:36:14.673Z,96398.22
2023-03-19T07:38:43.569Z,96403.16
2023-03-19T07:41:09.947Z,96404.25
2023-03-19T07:43:37.751Z,96406.22
2023-03-19T07:46:04.507Z,96394.53
2023-03-19T07:48:31.723Z,96403.81
2023-03-19T07:50:58.656Z,96395.56
2023-03-19T07:53:25.269Z,96399.75
2023-03-19T07:55:51.698Z,96400.31
2023-03-19T07:58:19.113Z,96383.69
2023-03-19T08:00:46.144Z,96378.03
2023-03-19T08:03:13.236Z,96374.81
2023-03-19T08:05:42.495Z,96370.03
2023-03-19T08:08:08.929Z,96372.13
2023-03-19T08:10:37.440Z,96366.97
2023-03-19T08:13:07.692Z,96364.03
2023-03-19T08:15:34.673Z,96363.25
2023-03-19T08:18:04.113Z,96360.31
2023-03-19T08:20:31.761Z,96359.28
2023-03-19T08:22:58.976Z,96358.25
2023-03-19T08:25:26.128Z,96364.00
2023-03-19T08:27:52.680Z,96363.53
2023-03-19T08:30:19.274Z,96355.19
2023-03-19T08:32:45.924Z,96363.22
2023-03-19T08:35:14.871Z,96361.00
2023-03-19T08:37:41.672Z,96360.91
2023-03-19T08:40:08.910Z,96353.34
2023-03-19T08:42:35.619Z,96355.06
2023-03-19T08:45:02.077Z,96349.63
2023-03-19T08:47:28.836Z,96349.19
2023-03-19T08:49:55.796Z,96353.88
2023-03-19T08:52:22.759Z,96340.06
2023-03-19T08:54:49.165Z,96346.41
2023-03-19T08:57:15.742Z,96351.53
2023-03-19T08:59:42.788Z,96341.97
2023-03-19T09:02:12.484Z,96342.84
2023-03-19T09:04:43.964Z,96338.16
2023-03-19T09:07:18.639Z,96337.25
2023-03-19T09:09:45.711Z,96340.97
2023-03-19T09:12:16.545Z,96340.91
2023-03-19T09:14:43.712Z,96343.28
2023-03-19T09:17:12.655Z,96346.63
2023-03-19T09:19:39.213Z,96337.59
2023-03-19T09:22:05.965Z,96346.34
2023-03-19T09:24:32.476Z,96339.13
2023-03-19T09:26:58.941Z,96345.63
2023-03-19T09:29:25.622Z,96346.91
2023-03-19T09:31:52.065Z,96341.84
2023-03-19T09:34:19.153Z,96342.47
2023-03-19T09:36:45.785Z,96341.66
2023-03-19T09:39:13.510Z,96345.09
2023-03-19T09:42:01.133Z,96339.06
2023-03-19T09:44:43.220Z,96343.94
2023-03-19T09:47:23.861Z,96342.56
2023-03-19T09:49:52.913Z,96340.81
2023-03-19T09:52:42.590Z,96345.44
2023-03-19T09:55:25.595Z,96343.66
2023-03-19T09:57:55.313Z,96346.34
2023-03-19T10:00:34.341Z,96345.09
2023-03-19T10:03:22.671Z,96339.13
2023-03-19T10:06:02.657Z,96336.00
2023-03-19T10:08:39.444Z,96337.91
2023-03-19T10:11:18.694Z,96332.63
2023-03-19T10:14:09.564Z,96324.50
2023-03-19T10:16:40.125Z,96329.88
2023-03-19T10:19:13.407Z,96322.38
2023-03-19T10:21:48.663Z,96324.28
2023-03-19T10:24:21.605Z,96325.41
2023-03-19T10:26:48.396Z,96329.00
2023-03-19T10:29:19.655Z,96322.81
2023-03-19T10:31:49.409Z,96323.25
2023-03-19T10:34:25.483Z,96319.75
2023-03-19T10:37:00.224Z,96318.66
2023-03-19T10:39:28.651Z,96311.09
2023-03-19T10:42:04.259Z,96307.09
2023-03-19T10:44:55.293Z,96301.84
2023-03-19T10:47:25.805Z,96304.94
2023-03-19T10:49:52.941Z,96297.94
2023-03-19T10:52:30.841Z,96295.28
2023-03-19T10:55:03.557Z,96289.00
2023-03-19T10:57:39.606Z,96285.59
2023-03-19T11:00:07.034Z,96278.34
2023-03-19T11:02:35.830Z,96281.59
2023-03-19T11:05:23.151Z,96273.25
2023-03-19T11:07:55.423Z,96269.50
2023-03-19T11:10:23.097Z,96267.44
2023-03-19T11:13:23.718Z,96270.63
2023-03-19T11:15:52.970Z,96261.84
2023-03-19T11:18:22.958Z,96263.06
2023-03-19T11:20:58.253Z,96264.25
2023-03-19T11:23:27.827Z,96258.84
2023-03-19T11:25:56.049Z,96239.72
2023-03-19T11:28:26.552Z,96240.09
2023-03-19T11:31:08.781Z,96231.97
2023-03-19T11:33:57.208Z,96232.38
2023-03-19T11:36:51.261Z,96240.66
2023-03-19T11:39:48.522Z,96234.56
2023-03-19T11:42:33.333Z,96234.47
2023-03-19T11:45:13.731Z,96233.16
2023-03-19T11:47:46.245Z,96226.06
2023-03-19T11:50:54.286Z,96229.47
2023-03-19T11:53:38.666Z,96224.19
2023-03-19T11:56:15.860Z,96221.16
2023-03-19T11:59:02.261Z,96225.00
2023-03-19T12:01:39.411Z,96215.56
2023-03-19T12:04:22.029Z,96213.31
2023-03-19T12:06:51.424Z,96209.81
2023-03-19T12:09:36.713Z,96201.00
2023-03-19T12:12:26.961Z,96201.78
2023-03-19T12:15:01.316Z,96200.50
2023-03-19T12:17:42.621Z,96195.53
2023-03-19T12:20:27.798Z,96192.69
2023-03-19T12:23:03.163Z,96201.22
2023-03-19T12:25:29.580Z,96198.25
2023-03-19T12:28:06.678Z,96189.34
2023-03-19T12:30:46.064Z,96197.63
2023-03-19T12:33:43.663Z,96199.25
2023-03-19T12:36:18.949Z,96192.22
2023-03-19T12:38:50.915Z,96193.50
2023-03-19T12:41:26.066Z,96199.25
2023-03-19T12:44:01.934Z,96196.06
2023-03-19T12:46:28.431Z,96202.75
2023-03-19T12:49:06.413Z,96205.16
2023-03-19T12:51:42.887Z,96199.59
2023-03-19T12:54:17.556Z,96204.84
2023-03-19T12:56:53.532Z,96198.00
2023-03-19T12:59:29.896Z,96208.53
2023-03-19T13:02:12.687Z,96194.31
2023-03-19T13:04:43.114Z,96194.78
2023-03-19T13:07:19.616Z,96191.56
2023-03-19T13:10:09.123Z,96191.56
2023-03-19T13:12:38.210Z,96187.44
2023-03-19T13:15:26.892Z,96195.25
2023-03-19T13:18:12.333Z,96193.81
2023-03-19T13:21:27.249Z,96189.81
2023-03-19T13:24:15.488Z,96192.69
2023-03-19T13:26:43.816Z,96190.00
2023-03-19T13:29:20.716Z,96189.66
2023-03-19T13:31:48.223Z,96191.63
2023-03-19T13:34:20.350Z,96186.44
2023-03-19T13:37:02.740Z,96193.16
2023-03-19T13:39:33.029Z,96188.34
2023-03-19T13:42:23.735Z,96185.09
2023-03-19T13:45:03.185Z,96182.28
2023-03-19T13:47:31.810Z,96187.75
2023-03-19T13:50:16.278Z,96186.56
2023-03-19T13:52:50.405Z,96184.03
2023-03-19T13:55:26.689Z,96184.88
2023-03-19T13:58:12.475Z,96176.06
2023-03-19T14:00:42.966Z,96176.63
2023-03-19T14:03:31.196Z,96175.75
2023-03-19T14:05:59.473Z,96164.31
2023-03-19T14:08:28.401Z,96168.09
2023-03-19T14:11:04.194Z,96167.16
2023-03-19T14:13:43.326Z,96165.59
2023-03-19T14:16:16.884Z,96163.56
2023-03-19T14:18:44.232Z,96170.63
2023-03-19T14:21:47.371Z,96155.59
2023-03-19T14:24:56.272Z,96171.16
2023-03-19T14:27:33.447Z,96174.31
2023-03-19T14:30:15.632Z,96168.97
2023-03-19T14:32:43.142Z,96162.84
2023-03-19T14:35:16.324Z,96167.56
2023-03-19T14:37:52.234Z,96166.50
2023-03-19T14:40:30.866Z,96169.91
2023-03-19T14:43:34.589Z,96172.28
2023-03-19T14:46:05.423Z,96175.34
2023-03-19T14:48:56.480Z,96179.38
2023-03-19T14:51:51.125Z,96177.53
2023-03-19T14:54:49.122Z,96180.97
2023-03-19T14:57:21.743Z,96183.75
2023-03-19T14:59:49.716Z,96195.47
2023-03-19T15:02:31.895Z,96193.38
2023-03-19T15:05:00.805Z,96188.25
2023-03-19T15:07:34.053Z,96194.72
2023-03-19T15:10:06.470Z,96198.06
2023-03-19T15:12:46.171Z,96205.09
2023-03-19T15:15:31.947Z,96210.19
2023-03-19T15:18:04.043Z,96216.91
2023-03-19T15:20:39.138Z,96230.91
2023-03-19T15:23:23.483Z,96241.38
2023-03-19T15:26:00.280Z,96244.69
2023-03-19T15:28:29.205Z,96257.38
2023-03-19T15:31:05.760Z,96255.88
2023-03-19T15:33:42.740Z,96264.78
2023-03-19T15:36:14.089Z,96260.72
2023-03-19T15:38:54.850Z,96277.00
2023-03-19T15:41:24.875Z,96282.16
2023-03-19T15:43:52.185Z,96285.38
2023-03-19T15:46:24.375Z,96290.72
2023-03-19T15:49:05.070Z,96311.16
2023-03-19T15:51:32.227Z,96315.75
2023-03-19T15:54:00.837Z,96329.97
2023-03-19T15:56:27.612Z,96328.38
2023-03-19T15:58:57.302Z,96332.63
2023-03-19T16:01:24.440Z,96336.78
2023-03-19T16:03:55.680Z,96346.63
2023-03-19T16:06:28.947Z,96355.25
2023-03-19T16:09:06.585Z,96362.53
2023-03-19T16:11:38.763Z,96383.34
2023-03-19T16:14:19.065Z,96387.94
2023-03-19T16:16:47.603Z,96404.31
2023-03-19T16:19:51.989Z,96409.72
2023-03-19T16:22:24.045Z,96422.78
2023-03-19T16:24:52.572Z,96431.47
2023-03-19T16:27:22.054Z,96431.97
2023-03-19T16:29:56.347Z,96445.09
2023-03-19T16:32:26.961Z,96450.44
2023-03-19T16:34:55.760Z,96464.03
2023-03-19T16:37:32.901Z,96473.00
2023-03-19T16:40:23.768Z,96477.69
2023-03-19T16:42:52.524Z,96487.25
2023-03-19T16:45:19.038Z,96495.09
2023-03-19T16:47:50.390Z,96498.78
2023-03-19T16:50:19.100Z,96498.22
2023-03-19T16:52:47.243Z,96511.09
2023-03-19T16:55:22.588Z,96530.13
2023-03-19T16:57:55.358Z,96533.31
2023-03-19T17:00:23.246Z,96520.53
2023-03-19T17:02:49.707Z,96530.31
2023-03-19T17:05:16.586Z,96529.88
2023-03-19T17:07:43.890Z,96518.09
2023-03-19T17:10:15.329Z,96524.66
2023-03-19T17:12:43.481Z,96525.22
2023-03-19T17:15:27.251Z,96514.44
2023-03-19T17:17:54.221Z,96525.72
2023-03-19T17:20:26.357Z,96531.00
2023-03-19T17:22:53.286Z,96527.97
2023-03-19T17:25:19.695Z,96529.38
2023-03-19T17:27:46.885Z,96532.56
2023-03-19T17:30:14.744Z,96522.19
2023-03-19T17:32:46.901Z,96525.50
2023-03-19T17:35:19.497Z,96526.25
2023-03-19T17:37:46.779Z,96514.97
2023-03-19T17:40:23.030Z,96524.59
2023-03-19T17:42:51.325Z,96521.81
2023-03-19T17:45:21.340Z,96519.59
2023-03-19T17:47:50.777Z,96516.81
2023-03-19T17:50:20.183Z,96530.50
2023-03-19T17:52:47.920Z,96523.97
2023-03-19T17:55:17.078Z,96511.00
2023-03-19T17:57:43.738Z,96520.56
2023-03-19T18:00:11.606Z,96525.78
2023-03-19T18:02:41.263Z,96529.28
2023-03-19T18:05:28.241Z,96520.38
2023-03-19T18:07:56.252Z,96523.06
2023-03-19T18:10:30.208Z,96528.09
2023-03-19T18:12:59.896Z,96525.88
2023-03-19T18:15:27.952Z,96523.53
2023-03-19T18:17:57.738Z,96528.22
2023-03-19T18:20:27.019Z,96527.50
2023-03-19T18:22:53.448Z,96530.31
2023-03-19T18:25:23.233Z,96524.63
2023-03-19T18:27:50.842Z,96523.47
2023-03-19T18:30:19.818Z,96524.41
2023-03-19T18:32:48.784Z,96529.94
2023-03-19T18:35:22.664Z,96526.06
2023-03-19T18:37:51.183Z,96536.38
2023-03-19T18:40:23.360Z,96535.03
2023-03-19T18:42:50.282Z,96537.03
2023-03-19T18:45:18.381Z,96532.69
2023-03-19T18:47:47.235Z,96542.72
2023-03-19T18:50:21.052Z,96544.09
2023-03-19T18:52:49.788Z,96543.22
2023-03-19T18:55:17.452Z,96548.81
2023-03-19T18:58:00.494Z,96553.72
2023-03-19T19:00:33.249Z,96549.94
2023-03-19T19:03:01.124Z,96554.56
2023-03-19T19:05:30.500Z,96556.59
2023-03-19T19:07:59.098Z,96556.34
2023-03-19T19:10:26.294Z,96559.44
2023-03-19T19:12:55.598Z,96561.66
2023-03-19T19:15:25.472Z,96556.63
2023-03-19T19:17:52.414Z,96563.91
2023-03-19T19:20:22.179Z,96570.84
2023-03-19T19:22:50.572Z,96570.56
2023-03-19T19:25:24.108Z,96569.03
2023-03-19T19:27:57.584Z,96574.38
2023-03-19T19:30:24.764Z,96579.44
2023-03-19T19:32:52.039Z,96579.56
2023-03-19T19:35:24.121Z,96580.22
2023-03-19T19:37:51.443Z,96574.72
2023-03-19T19:40:20.949Z,96579.44
2023-03-19T19:42:51.387Z,96592.03
2023-03-19T19:45:23.740Z,96587.06
2023-03-19T19:47:50.346Z,96590.63
2023-03-19T19:50:18.685Z,96591.16
2023-03-19T19:52:45.817Z,96596.06
2023-03-19T19:55:16.404Z,96604.94
2023-03-19T19:57:44.113Z,96597.81
2023-03-19T20:00:31.330Z,96603.47
2023-03-19T20:02:59.480Z,96606.75
2023-03-19T20:05:29.749Z,96611.16
2023-03-19T20:07:59.545Z,96614.38
2023-03-19T20:10:28.451Z,96624.50
2023-03-19T20:13:01.713Z,96618.06
2023-03-19T20:15:33.829Z,96621.25
2023-03-19T20:18:02.249Z,96635.97
2023-03-19T20:20:33.145Z,96640.56
2023-03-19T20:23:02.114Z,96646.28
2023-03-19T20:25:32.501Z,96643.56
2023-03-19T20:28:02.384Z,96638.44
2023-03-19T20:30:31.818Z,96660.75
2023-03-19T20:33:00.018Z,96654.75
2023-03-19T20:35:29.525Z,96652.47
2023-03-19T20:37:57.456Z,96654.34
2023-03-19T20:40:31.402Z,96659.00
2023-03-19T20:42:57.995Z,96656.94
2023-03-19T20:45:30.769Z,96659.34
2023-03-19T20:47:57.235Z,96657.53
2023-03-19T20:50:26.098Z,96656.34
2023-03-19T20:52:52.899Z,96657.78
2023-03-19T20:55:21.491Z,96659.09
2023-03-19T20:57:50.066Z,96663.63
2023-03-19T21:00:30.006Z,96663.72
2023-03-19T21:02:58.569Z,96664.63
2023-03-19T21:05:31.614Z,96666.78
2023-03-19T21:07:58.094Z,96670.63
2023-03-19T21:10:39.231Z,96675.44
2023-03-19T21:13:06.311Z,96678.59
2023-03-19T21:15:32.908Z,96677.19
2023-03-19T21:17:59.453Z,96682.72
2023-03-19T21:20:28.642Z,96688.03
2023-03-19T21:23:06.276Z,96688.06
2023-03-19T21:25:33.654Z,96700.78
2023-03-19T21:28:03.990Z,96698.09
2023-03-19T21:30:30.478Z,96700.16
2023-03-19T21:32:57.561Z,96697.78
2023-03-19T21:35:26.166Z,96700.69
2023-03-19T21:37:54.083Z,96709.84
2023-03-19T21:40:23.153Z,96705.47
2023-03-19T21:42:53.689Z,96704.63
2023-03-19T21:45:27.479Z,96707.56
2023-03-19T21:48:28.993Z,96709.28
2023-03-19T21:50:56.608Z,96704.81
2023-03-19T21:53:23.687Z,96704.38
2023-03-19T21:55:51.842Z,96708.47
2023-03-19T21:58:25.565Z,96700.22
2023-03-19T22:00:52.334Z,96704.06
2023-03-19T22:03:21.517Z,96705.59
2023-03-19T22:05:50.015Z,96702.56
2023-03-19T22:08:21.553Z,96701.91
2023-03-19T22:10:53.253Z,96701.06
2023-03-19T22:13:23.632Z,96696.53
2023-03-19T22:15:52.268Z,96705.63
2023-03-19T22:18:19.036Z,96697.75
2023-03-19T22:20:46.647Z,96688.47
2023-03-19T22:23:15.012Z,96690.81
2023-03-19T22:25:44.700Z,96685.13
2023-03-19T22:28:20.829Z,96680.28
2023-03-19T22:30:48.453Z,96676.78
2023-03-19T22:33:21.399Z,96674.41
2023-03-19T22:35:51.209Z,96680.91
2023-03-19T22:38:19.397Z,96684.72
2023-03-19T22:40:48.487Z,96681.41
2023-03-19T22:43:31.215Z,96670.00
2023-03-19T22:46:13.715Z,96668.09
2023-03-19T22:48:41.912Z,96673.22
2023-03-19T22:51:08.548Z,96670.75
2023-03-19T22:53:36.778Z,96671.56
2023-03-19T22:56:04.376Z,96685.41
2023-03-19T22:58:31.049Z,96678.84
2023-03-19T23:00:57.922Z,96672.59
2023-03-19T23:03:27.028Z,96672.41
2023-03-19T23:05:57.323Z,96677.59
2023-03-19T23:08:23.926Z,96670.28
2023-03-19T23:10:51.779Z,96667.75
2023-03-19T23:13:18.509Z,96676.00
2023-03-19T23:15:45.649Z,96677.16
2023-03-19T23:18:22.513Z,96672.81
2023-03-19T23:20:49.164Z,96670.91
2023-03-19T23:23:17.555Z,96666.44
2023-03-19T23:25:46.651Z,96668.78
2023-03-19T23:28:22.109Z,96669.34
2023-03-19T23:30:50.363Z,96664.47
2023-03-19T23:33:19.694Z,96667.06
2023-03-19T23:35:47.039Z,96663.06
2023-03-19T23:38:15.722Z,96665.22
2023-03-19T23:40:44.179Z,96673.56
2023-03-19T23:43:20.413Z,96674.56
2023-03-19T23:45:48.261Z,96674.78
2023-03-19T23:48:20.445Z,96675.25
2023-03-19T23:50:48.189Z,96673.34
2023-03-19T23:53:24.793Z,96668.66
2023-03-19T23:55:53.981Z,96673.75
2023-03-19T23:58:20.806Z,96677.69
